createdAt,value
2023-05-06T00:02:23.264Z,3.28
2023-05-06T00:07:25.202Z,3.05
2023-05-06T00:12:27.404Z,2.78
2023-05-06T00:17:29.316Z,2.80
2023-05-06T00:22:31.182Z,2.95
2023-05-06T00:27:33.507Z,3.15
2023-05-06T00:32:35.878Z,2.67
2023-05-06T00:37:37.637Z,2.83
2023-05-06T00:42:39.360Z,3.25
2023-05-06T00:47:43.273Z,2.47
2023-05-06T00:52:46.437Z,2.80
2023-05-06T00:57:51.934Z,2.90
2023-05-06T01:02:56.940Z,3.08
2023-05-06T01:08:17.874Z,3.92
2023-05-06T01:13:39.818Z,3.15
2023-05-06T01:18:44.487Z,3.08
2023-05-06T01:23:55.392Z,3.33
2023-05-06T01:28:58.399Z,3.78
2023-05-06T01:34:06.525Z,3.35
2023-05-06T01:39:14.273Z,3.38
2023-05-06T01:44:21.748Z,3.42
2023-05-06T01:49:26.244Z,3.13
2023-05-06T01:54:28.078Z,3.58
2023-05-06T01:59:29.967Z,3.03
2023-05-06T02:04:32.454Z,3.28
2023-05-06T02:09:34.790Z,3.63
2023-05-06T02:14:38.390Z,3.80
2023-05-06T02:19:41.255Z,2.95
2023-05-06T02:24:43.110Z,3.40
2023-05-06T02:29:45.136Z,3.28
2023-05-06T02:34:47.021Z,3.45
2023-05-06T02:39:48.878Z,3.70
2023-05-06T02:44:50.746Z,3.97
2023-05-06T02:49:52.640Z,3.28
2023-05-06T02:54:54.598Z,2.83
2023-05-06T02:59:56.529Z,3.60
2023-05-06T03:04:58.380Z,2.80
2023-05-06T03:10:00.933Z,2.70
2023-05-06T03:15:06.362Z,3.25
2023-05-06T03:20:08.906Z,3.10
2023-05-06T03:25:13.724Z,3.45
2023-05-06T03:30:17.352Z,3.03
2023-05-06T03:35:23.412Z,3.90
2023-05-06T03:40:29.928Z,3.33
2023-05-06T03:45:32.710Z,4.05
2023-05-06T03:50:37.916Z,3.38
2023-05-06T03:55:40.076Z,3.72
2023-05-06T04:00:42.365Z,2.92
2023-05-06T04:05:46.005Z,3.50
2023-05-06T04:10:51.508Z,3.22
2023-05-06T04:16:05.804Z,3.47
2023-05-06T04:21:13.092Z,3.45
2023-05-06T04:26:17.475Z,2.90
2023-05-06T04:31:21.346Z,2.90
2023-05-06T04:36:25.604Z,2.75
2023-05-06T04:41:46.747Z,2.60
2023-05-06T04:46:53.133Z,3.28
2023-05-06T04:51:55.219Z,3.30
2023-05-06T04:56:57.204Z,3.38
2023-05-06T05:01:59.524Z,3.15
2023-05-06T05:07:01.613Z,3.15
2023-05-06T05:12:06.002Z,4.60
2023-05-06T05:17:11.789Z,4.55
2023-05-06T05:22:14.742Z,4.90
2023-05-06T05:27:16.949Z,4.80
2023-05-06T05:32:20.393Z,5.32
2023-05-06T05:37:22.361Z,5.35
2023-05-06T05:42:24.168Z,4.78
2023-05-06T05:47:27.215Z,4.55
2023-05-06T05:52:30.251Z,4.82
2023-05-06T05:57:32.418Z,5.35
2023-05-06T06:02:34.881Z,5.13
2023-05-06T06:07:36.878Z,5.28
2023-05-06T06:12:38.927Z,5.22
2023-05-06T06:17:41.742Z,4.75
2023-05-06T06:22:44.440Z,4.68
2023-05-06T06:27:46.394Z,4.95
2023-05-06T06:32:53.569Z,4.85
2023-05-06T06:37:55.709Z,4.90
2023-05-06T06:42:57.533Z,5.38
2023-05-06T06:48:22.824Z,4.47
2023-05-06T06:53:33.783Z,5.25
2023-05-06T06:58:35.720Z,5.07
2023-05-06T07:03:37.557Z,5.10
2023-05-06T07:08:39.575Z,6.00
2023-05-06T07:13:41.528Z,5.60
2023-05-06T07:18:43.446Z,5.70
2023-05-06T07:23:45.387Z,5.13
2023-05-06T07:28:47.187Z,6.30
2023-05-06T07:33:49.019Z,5.78
2023-05-06T07:38:51.222Z,6.18
2023-05-06T07:43:53.658Z,6.30
2023-05-06T07:48:55.526Z,6.68
2023-05-06T07:53:57.647Z,6.85
2023-05-06T07:59:00.150Z,7.72
2023-05-06T08:04:02.046Z,8.43
2023-05-06T08:09:04.100Z,7.57
2023-05-06T08:14:05.911Z,8.65
2023-05-06T08:19:07.788Z,8.85
2023-05-06T08:24:11.059Z,8.45
2023-05-06T08:29:13.631Z,8.38
2023-05-06T08:34:18.605Z,8.23
2023-05-06T08:39:20.644Z,8.27
2023-05-06T08:44:24.852Z,7.80
2023-05-06T08:49:27.143Z,8.48
2023-05-06T08:54:29.562Z,7.60
2023-05-06T08:59:33.007Z,8.65
2023-05-06T09:04:35.521Z,7.75
2023-05-06T09:09:37.516Z,8.50
2023-05-06T09:14:40.088Z,8.00
2023-05-06T09:19:42.365Z,8.85
2023-05-06T09:24:44.276Z,9.68
2023-05-06T09:30:05.407Z,9.35
2023-05-06T09:35:08.963Z,8.75
2023-05-06T09:40:11.963Z,9.07
2023-05-06T09:45:16.004Z,8.15
2023-05-06T09:50:18.122Z,10.10
2023-05-06T09:55:21.467Z,7.78
2023-05-06T10:00:28.368Z,8.27
2023-05-06T10:05:32.521Z,8.43
2023-05-06T10:10:35.198Z,8.48
2023-05-06T10:15:38.728Z,7.03
2023-05-06T10:20:43.024Z,7.28
2023-05-06T10:25:46.920Z,7.90
2023-05-06T10:30:51.148Z,7.28
2023-05-06T10:36:24.048Z,7.50
2023-05-06T10:41:28.236Z,7.45
2023-05-06T10:46:30.841Z,7.80
2023-05-06T10:51:34.071Z,6.47
2023-05-06T10:56:37.121Z,7.97
2023-05-06T11:01:44.063Z,7.60
2023-05-06T11:06:48.556Z,7.47
2023-05-06T11:11:52.216Z,7.20
2023-05-06T11:16:55.145Z,7.13
2023-05-06T11:22:02.353Z,6.65
2023-05-06T11:27:06.094Z,8.02
2023-05-06T11:32:23.482Z,6.88
2023-05-06T11:37:29.952Z,6.60
2023-05-06T11:42:32.029Z,8.05
2023-05-06T11:47:33.960Z,6.30
2023-05-06T11:52:35.942Z,6.20
2023-05-06T11:57:44.932Z,5.78
2023-05-06T12:02:47.337Z,5.60
2023-05-06T12:07:49.756Z,4.57
2023-05-06T12:12:51.990Z,4.65
2023-05-06T12:17:54.160Z,3.65
2023-05-06T12:23:07.041Z,3.60
2023-05-06T12:28:19.371Z,3.80
2023-05-06T12:33:21.480Z,3.88
2023-05-06T12:38:23.391Z,3.47
2023-05-06T12:43:30.774Z,4.55
2023-05-06T12:48:32.763Z,4.88
2023-05-06T12:53:35.691Z,4.68
2023-05-06T12:58:38.728Z,4.72
2023-05-06T13:03:41.365Z,5.93
2023-05-06T13:08:43.954Z,5.95
2023-05-06T13:13:45.975Z,6.22
2023-05-06T13:18:47.810Z,6.43
2023-05-06T13:23:49.826Z,4.93
2023-05-06T13:28:54.764Z,5.18
2023-05-06T13:33:56.814Z,5.43
2023-05-06T13:38:58.644Z,5.32
2023-05-06T13:44:00.638Z,5.57
2023-05-06T13:49:02.666Z,5.65
2023-05-06T13:54:04.668Z,5.55
2023-05-06T13:59:08.300Z,4.85
2023-05-06T14:04:10.966Z,5.53
2023-05-06T14:09:13.101Z,5.10
2023-05-06T14:14:15.699Z,6.47
2023-05-06T14:19:17.547Z,5.78
2023-05-06T14:24:19.499Z,5.85
2023-05-06T14:29:21.421Z,7.68
2023-05-06T14:34:23.374Z,6.80
2023-05-06T14:39:25.420Z,7.05
2023-05-06T14:44:27.605Z,7.93
2023-05-06T14:49:29.493Z,6.95
2023-05-06T14:54:31.372Z,7.10
2023-05-06T14:59:33.359Z,7.93
2023-05-06T15:04:35.680Z,7.40
2023-05-06T15:09:39.684Z,8.02
2023-05-06T15:14:42.114Z,6.80
2023-05-06T15:19:44.122Z,6.45
2023-05-06T15:24:45.968Z,7.10
2023-05-06T15:29:47.819Z,7.03
2023-05-06T15:34:49.822Z,7.20
2023-05-06T15:39:51.695Z,7.78
2023-05-06T15:44:55.097Z,8.60
2023-05-06T15:49:57.119Z,8.48
2023-05-06T15:55:00.027Z,7.05
2023-05-06T16:00:02.655Z,7.50
2023-05-06T16:05:09.749Z,7.13
2023-05-06T16:10:11.939Z,6.55
2023-05-06T16:15:14.078Z,7.45
2023-05-06T16:20:16.348Z,7.53
2023-05-06T16:25:18.273Z,7.70
2023-05-06T16:30:20.383Z,8.10
2023-05-06T16:35:22.430Z,7.65
2023-05-06T16:40:24.418Z,6.32
2023-05-06T16:45:26.316Z,6.38
2023-05-06T16:50:28.308Z,6.40
2023-05-06T16:55:30.137Z,6.88
2023-05-06T17:00:32.196Z,6.45
2023-05-06T17:05:34.405Z,6.50
2023-05-06T17:10:36.840Z,7.65
2023-05-06T17:15:38.701Z,7.75
2023-05-06T17:20:54.215Z,7.53
2023-05-06T17:25:57.468Z,7.97
2023-05-06T17:30:59.322Z,7.88
2023-05-06T17:36:01.366Z,8.38
2023-05-06T17:41:03.325Z,8.18
2023-05-06T17:46:06.959Z,7.93
2023-05-06T17:51:08.970Z,8.05
2023-05-06T17:56:11.132Z,8.23
2023-05-06T18:01:13.485Z,7.97
2023-05-06T18:06:15.741Z,8.55
2023-05-06T18:11:17.736Z,7.28
2023-05-06T18:16:20.249Z,6.97
2023-05-06T18:21:22.468Z,7.53
2023-05-06T18:26:42.748Z,6.63
2023-05-06T18:31:46.691Z,6.30
2023-05-06T18:36:49.785Z,6.45
2023-05-06T18:41:51.615Z,7.70
2023-05-06T18:46:53.403Z,7.50
2023-05-06T18:51:56.358Z,8.32
2023-05-06T18:56:58.775Z,7.35
2023-05-06T19:02:01.945Z,6.50
2023-05-06T19:07:05.178Z,6.95
2023-05-06T19:12:07.082Z,6.53
2023-05-06T19:17:08.956Z,5.75
2023-05-06T19:22:11.249Z,5.63
2023-05-06T19:27:13.076Z,5.80
2023-05-06T19:32:14.779Z,5.97
2023-05-06T19:37:16.565Z,9.57
2023-05-06T19:42:21.275Z,6.82
2023-05-06T19:47:23.402Z,6.63
2023-05-06T19:52:30.645Z,5.70
2023-05-06T19:57:33.975Z,6.50
2023-05-06T20:02:38.855Z,5.93
2023-05-06T20:07:41.587Z,5.88
2023-05-06T20:12:43.632Z,5.55
2023-05-06T20:17:45.568Z,6.20
2023-05-06T20:22:47.684Z,5.68
2023-05-06T20:27:49.539Z,5.50
2023-05-06T20:32:52.106Z,4.60
2023-05-06T20:37:54.703Z,4.55
2023-05-06T20:42:56.621Z,4.75
2023-05-06T20:47:58.811Z,4.95
2023-05-06T20:53:01.664Z,4.38
2023-05-06T20:58:04.203Z,4.28
2023-05-06T21:03:06.172Z,4.00
2023-05-06T21:08:08.843Z,3.97
2023-05-06T21:13:10.722Z,4.32
2023-05-06T21:18:13.758Z,5.20
2023-05-06T21:23:16.293Z,4.18
2023-05-06T21:28:18.126Z,4.57
2023-05-06T21:33:19.966Z,5.30
2023-05-06T21:38:21.852Z,4.68
2023-05-06T21:43:23.684Z,4.45
2023-05-06T21:48:25.500Z,3.70
2023-05-06T21:53:27.295Z,4.13
2023-05-06T21:58:29.071Z,4.20
2023-05-06T22:03:31.088Z,3.75
2023-05-06T22:08:33.209Z,3.92
2023-05-06T22:13:35.249Z,4.28
2023-05-06T22:18:41.661Z,4.03
2023-05-06T22:23:43.562Z,4.90
2023-05-06T22:28:46.068Z,4.63
2023-05-06T22:33:49.620Z,4.85
2023-05-06T22:38:51.425Z,3.92
2023-05-06T22:43:53.677Z,4.28
2023-05-06T22:48:55.484Z,4.38
2023-05-06T22:53:57.315Z,4.10
2023-05-06T22:58:59.179Z,3.90
2023-05-06T23:04:01.072Z,4.28
2023-05-06T23:09:02.981Z,5.55
2023-05-06T23:14:05.029Z,3.83
2023-05-06T23:19:06.780Z,3.80
2023-05-06T23:24:09.120Z,4.07
2023-05-06T23:29:10.880Z,4.65
2023-05-06T23:34:12.644Z,4.63
2023-05-06T23:39:17.704Z,4.50
2023-05-06T23:44:19.542Z,4.20
2023-05-06T23:49:21.481Z,4.32
2023-05-06T23:54:23.368Z,4.63
2023-05-06T23:59:25.292Z,5.22
